createdAt,value
2023-03-07T00:05:40.847Z,0.00
2023-03-07T00:06:40.800Z,0.00
2023-03-07T00:07:40.799Z,0.00
2023-03-07T00:08:40.781Z,0.00
2023-03-07T00:09:40.773Z,0.00
2023-03-07T00:10:40.760Z,0.00
2023-03-07T00:11:40.756Z,0.00
2023-03-07T00:12:40.747Z,0.00
2023-03-07T00:13:40.750Z,0.00
2023-03-07T00:14:40.767Z,0.00
2023-03-07T00:15:40.735Z,0.00
2023-03-07T00:16:40.699Z,0.00
2023-03-07T00:17:40.696Z,0.00
2023-03-07T00:18:40.679Z,0.00
2023-03-07T00:19:40.666Z,0.00
2023-03-07T00:20:40.649Z,0.00
2023-03-07T00:21:40.648Z,0.00
2023-03-07T00:22:40.639Z,0.00
2023-03-07T00:23:40.627Z,0.00
2023-03-07T00:24:40.621Z,0.00
2023-03-07T00:25:40.612Z,0.00
2023-03-07T00:26:40.621Z,0.00
2023-03-07T00:27:40.606Z,0.00
2023-03-07T00:28:40.588Z,0.00
2023-03-07T00:29:40.565Z,0.00
2023-03-07T00:30:40.547Z,0.00
2023-03-07T00:31:40.564Z,0.00
2023-03-07T00:32:40.555Z,0.00
2023-03-07T00:33:40.522Z,0.00
2023-03-07T00:34:40.506Z,0.00
2023-03-07T00:35:40.515Z,0.00
2023-03-07T00:36:40.494Z,0.00
2023-03-07T00:37:40.496Z,0.00
2023-03-07T00:38:40.475Z,0.00
2023-03-07T00:39:40.460Z,0.00
2023-03-07T00:40:40.452Z,0.00
2023-03-07T00:41:40.437Z,0.00
2023-03-07T00:42:40.420Z,0.00
2023-03-07T00:43:40.413Z,0.00
2023-03-07T00:44:40.416Z,0.00
2023-03-07T00:45:40.417Z,0.00
2023-03-07T00:46:40.391Z,0.00
2023-03-07T00:47:40.409Z,0.00
2023-03-07T00:48:40.363Z,0.00
2023-03-07T00:49:40.364Z,0.00
2023-03-07T00:50:40.347Z,0.00
2023-03-07T00:51:40.374Z,0.00
2023-03-07T00:52:40.319Z,0.00
2023-03-07T00:53:40.333Z,0.00
2023-03-07T00:54:40.305Z,0.00
2023-03-07T00:55:40.306Z,0.00
2023-03-07T00:56:40.282Z,0.00
2023-03-07T00:57:40.277Z,0.00
2023-03-07T00:58:40.261Z,0.00
2023-03-07T00:59:40.267Z,0.00
2023-03-07T01:00:40.293Z,0.00
2023-03-07T01:01:40.241Z,0.00
2023-03-07T01:02:40.218Z,0.00
2023-03-07T01:03:40.276Z,0.00
2023-03-07T01:04:40.200Z,0.00
2023-03-07T01:05:40.211Z,0.00
2023-03-07T01:06:40.192Z,0.00
2023-03-07T01:07:40.179Z,0.00
2023-03-07T01:08:40.158Z,0.00
2023-03-07T01:09:40.148Z,0.00
2023-03-07T01:10:40.136Z,0.00
2023-03-07T01:11:40.138Z,0.00
2023-03-07T01:12:40.118Z,0.00
2023-03-07T01:13:40.156Z,0.00
2023-03-07T01:14:40.131Z,0.00
2023-03-07T01:15:40.091Z,0.00
2023-03-07T01:16:40.159Z,0.00
2023-03-07T01:17:40.073Z,0.00
2023-03-07T01:18:40.054Z,0.00
2023-03-07T01:19:40.047Z,0.00
2023-03-07T01:20:40.036Z,0.00
2023-03-07T01:21:40.041Z,0.00
2023-03-07T01:22:40.023Z,0.00
2023-03-07T01:23:40.006Z,0.00
2023-03-07T01:24:39.990Z,0.00
2023-03-07T01:25:39.983Z,0.00
2023-03-07T01:26:39.970Z,0.00
2023-03-07T01:27:39.968Z,0.00
2023-03-07T01:28:39.945Z,0.00
2023-03-07T01:29:39.943Z,0.00
2023-03-07T01:30:39.932Z,0.00
2023-03-07T01:31:39.986Z,0.00
2023-03-07T01:32:39.952Z,0.00
2023-03-07T01:33:39.905Z,0.00
2023-03-07T01:34:39.922Z,0.00
2023-03-07T01:35:39.900Z,0.00
2023-03-07T01:36:39.934Z,0.00
2023-03-07T01:37:39.859Z,0.00
2023-03-07T01:38:39.844Z,0.00
2023-03-07T01:39:39.844Z,0.00
2023-03-07T01:40:39.832Z,0.00
2023-03-07T01:41:39.832Z,0.00
2023-03-07T01:42:39.806Z,0.00
2023-03-07T01:43:39.803Z,0.00
2023-03-07T01:44:39.786Z,0.00
2023-03-07T01:45:39.789Z,0.00
2023-03-07T01:46:39.770Z,0.00
2023-03-07T01:47:39.753Z,0.00
2023-03-07T01:48:39.756Z,0.00
2023-03-07T01:49:39.745Z,0.00
2023-03-07T01:50:39.732Z,0.00
2023-03-07T01:51:39.711Z,0.00
2023-03-07T01:52:39.712Z,0.00
2023-03-07T01:53:39.696Z,0.00
2023-03-07T01:54:39.707Z,0.00
2023-03-07T01:55:39.666Z,0.00
2023-03-07T01:56:39.654Z,0.00
2023-03-07T01:57:39.648Z,0.00
2023-03-07T01:58:39.642Z,0.00
2023-03-07T01:59:39.620Z,0.00
2023-03-07T02:00:39.614Z,0.00
2023-03-07T02:01:39.642Z,0.00
2023-03-07T02:02:39.592Z,0.00
2023-03-07T02:03:39.581Z,0.00
2023-03-07T02:04:39.666Z,0.00
2023-03-07T02:05:39.560Z,0.00
2023-03-07T02:06:39.556Z,0.00
2023-03-07T02:07:39.534Z,0.00
2023-03-07T02:08:39.533Z,0.00
2023-03-07T02:09:39.521Z,0.00
2023-03-07T02:10:39.511Z,0.00
2023-03-07T02:11:39.500Z,0.00
2023-03-07T02:12:39.487Z,0.00
2023-03-07T02:13:39.485Z,0.00
2023-03-07T02:14:39.465Z,0.00
2023-03-07T02:15:39.488Z,0.00
2023-03-07T02:16:39.460Z,0.00
2023-03-07T02:17:39.458Z,0.00
2023-03-07T02:18:39.428Z,0.00
2023-03-07T02:19:39.432Z,0.00
2023-03-07T02:20:39.404Z,0.00
2023-03-07T02:21:39.390Z,0.00
2023-03-07T02:22:39.384Z,0.00
2023-03-07T02:23:39.375Z,0.00
2023-03-07T02:24:39.372Z,0.00
2023-03-07T02:25:39.355Z,0.00
2023-03-07T02:26:39.350Z,0.00
2023-03-07T02:27:39.330Z,0.00
2023-03-07T02:28:39.322Z,0.00
2023-03-07T02:29:39.405Z,0.00
2023-03-07T02:30:39.340Z,0.00
2023-03-07T02:31:39.294Z,0.00
2023-03-07T02:32:39.353Z,0.00
2023-03-07T02:33:39.273Z,0.00
2023-03-07T02:34:39.265Z,0.00
2023-03-07T02:35:39.284Z,0.00
2023-03-07T02:36:39.249Z,0.00
2023-03-07T02:37:39.232Z,0.00
2023-03-07T02:38:39.221Z,0.00
2023-03-07T02:39:39.207Z,0.00
2023-03-07T02:40:39.207Z,0.00
2023-03-07T02:41:39.186Z,0.00
2023-03-07T02:42:39.186Z,0.00
2023-03-07T02:43:39.176Z,0.00
2023-03-07T02:44:39.161Z,0.00
2023-03-07T02:45:39.182Z,0.00
2023-03-07T02:46:39.150Z,0.00
2023-03-07T02:47:39.134Z,0.00
2023-03-07T02:48:39.119Z,0.00
2023-03-07T02:49:39.110Z,0.00
2023-03-07T02:50:39.102Z,0.00
2023-03-07T02:51:39.088Z,0.00
2023-03-07T02:52:39.080Z,0.00
2023-03-07T02:53:39.065Z,0.00
2023-03-07T02:54:39.071Z,0.00
2023-03-07T02:55:39.052Z,0.00
2023-03-07T02:56:39.045Z,0.00
2023-03-07T02:57:39.024Z,0.00
2023-03-07T02:58:39.019Z,0.00
2023-03-07T02:59:39.007Z,0.00
2023-03-07T03:00:38.998Z,0.00
2023-03-07T03:01:39.015Z,0.00
2023-03-07T03:02:38.986Z,0.00
2023-03-07T03:03:38.968Z,0.00
2023-03-07T03:04:38.977Z,0.00
2023-03-07T03:05:38.953Z,0.00
2023-03-07T03:06:38.939Z,0.00
2023-03-07T03:07:38.932Z,0.00
2023-03-07T03:08:38.927Z,0.00
2023-03-07T03:09:38.907Z,0.00
2023-03-07T03:10:38.900Z,0.00
2023-03-07T03:11:38.898Z,0.00
2023-03-07T03:12:38.878Z,0.00
2023-03-07T03:13:39.173Z,0.00
2023-03-07T03:14:38.864Z,0.00
2023-03-07T03:15:38.845Z,0.00
2023-03-07T03:16:38.846Z,0.00
2023-03-07T03:17:38.837Z,0.00
2023-03-07T03:18:38.827Z,0.00
2023-03-07T03:19:38.809Z,0.00
2023-03-07T03:20:38.806Z,0.00
2023-03-07T03:21:38.786Z,0.00
2023-03-07T03:22:38.780Z,0.00
2023-03-07T03:23:38.770Z,0.00
2023-03-07T03:24:38.767Z,0.00
2023-03-07T03:25:40.207Z,0.00
2023-03-07T03:26:38.748Z,0.00
2023-03-07T03:27:38.734Z,0.00
2023-03-07T03:28:38.724Z,0.00
2023-03-07T03:29:38.717Z,0.00
2023-03-07T03:30:38.697Z,0.00
2023-03-07T03:31:38.706Z,0.00
2023-03-07T03:32:38.700Z,0.00
2023-03-07T03:33:38.669Z,0.00
2023-03-07T03:34:38.656Z,0.00
2023-03-07T03:35:38.695Z,0.00
2023-03-07T03:36:38.654Z,0.00
2023-03-07T03:37:38.623Z,0.00
2023-03-07T03:38:38.617Z,0.00
2023-03-07T03:39:38.603Z,0.00
2023-03-07T03:40:38.596Z,0.00
2023-03-07T03:41:38.580Z,0.00
2023-03-07T03:42:38.585Z,0.00
2023-03-07T03:43:38.564Z,0.00
2023-03-07T03:44:38.555Z,0.00
2023-03-07T03:45:38.543Z,0.00
2023-03-07T03:46:38.549Z,0.00
2023-03-07T03:47:38.528Z,0.00
2023-03-07T03:48:38.512Z,0.00
2023-03-07T03:49:38.498Z,0.00
2023-03-07T03:50:38.496Z,0.00
2023-03-07T03:51:38.480Z,0.00
2023-03-07T03:52:38.480Z,0.00
2023-03-07T03:53:38.463Z,0.00
2023-03-07T03:54:38.456Z,0.00
2023-03-07T03:55:38.448Z,0.00
2023-03-07T03:56:38.432Z,0.00
2023-03-07T03:57:38.428Z,0.00
2023-03-07T03:58:38.422Z,0.00
2023-03-07T03:59:38.404Z,0.00
2023-03-07T04:00:38.390Z,0.00
2023-03-07T04:01:38.421Z,0.00
2023-03-07T04:02:38.740Z,0.00
2023-03-07T04:03:38.361Z,0.00
2023-03-07T04:04:38.355Z,0.00
2023-03-07T04:05:38.501Z,0.00
2023-03-07T04:06:38.331Z,0.00
2023-03-07T04:07:38.317Z,0.00
2023-03-07T04:08:38.312Z,0.00
2023-03-07T04:09:38.298Z,0.00
2023-03-07T04:10:38.290Z,0.00
2023-03-07T04:11:38.278Z,0.00
2023-03-07T04:12:38.268Z,0.00
2023-03-07T04:13:38.255Z,0.00
2023-03-07T04:14:38.257Z,0.00
2023-03-07T04:15:38.241Z,0.00
2023-03-07T04:16:38.271Z,0.00
2023-03-07T04:17:38.215Z,0.00
2023-03-07T04:18:38.208Z,0.00
2023-03-07T04:19:38.197Z,0.00
2023-03-07T04:20:38.197Z,0.00
2023-03-07T04:21:38.186Z,0.00
2023-03-07T04:22:38.173Z,0.00
2023-03-07T04:23:38.154Z,0.00
2023-03-07T04:24:38.156Z,0.00
2023-03-07T04:25:38.166Z,0.00
2023-03-07T04:26:38.137Z,0.00
2023-03-07T04:27:38.119Z,0.00
2023-03-07T04:28:38.107Z,0.00
2023-03-07T04:29:38.094Z,0.00
2023-03-07T04:30:38.101Z,0.00
2023-03-07T04:31:38.157Z,0.00
2023-03-07T04:32:38.108Z,0.00
2023-03-07T04:33:38.059Z,0.00
2023-03-07T04:34:38.050Z,0.00
2023-03-07T04:35:38.084Z,0.00
2023-03-07T04:36:38.033Z,0.00
2023-03-07T04:37:38.025Z,0.00
2023-03-07T04:38:38.018Z,0.00
2023-03-07T04:39:37.995Z,0.00
2023-03-07T04:40:37.983Z,0.00
2023-03-07T04:41:38.009Z,0.00
2023-03-07T04:42:37.976Z,0.00
2023-03-07T04:43:37.961Z,0.00
2023-03-07T04:44:37.963Z,0.00
2023-03-07T04:45:37.980Z,0.00
2023-03-07T04:46:37.932Z,0.00
2023-03-07T04:47:37.925Z,0.00
2023-03-07T04:48:37.912Z,0.00
2023-03-07T04:49:37.900Z,0.00
2023-03-07T04:50:37.889Z,0.00
2023-03-07T04:51:37.885Z,0.00
2023-03-07T04:52:37.870Z,0.00
2023-03-07T04:53:37.863Z,0.00
2023-03-07T04:54:37.845Z,0.00
2023-03-07T04:55:37.851Z,0.00
2023-03-07T04:56:37.827Z,0.00
2023-03-07T04:57:37.837Z,0.00
2023-03-07T04:58:37.819Z,0.00
2023-03-07T04:59:37.795Z,0.00
2023-03-07T05:00:37.791Z,0.00
2023-03-07T05:01:37.832Z,0.00
2023-03-07T05:02:37.767Z,0.00
2023-03-07T05:03:37.773Z,0.00
2023-03-07T05:04:37.799Z,0.00
2023-03-07T05:05:37.838Z,0.00
2023-03-07T05:06:37.729Z,0.00
2023-03-07T05:07:37.716Z,0.00
2023-03-07T05:08:37.726Z,0.00
2023-03-07T05:09:37.701Z,0.00
2023-03-07T05:10:37.686Z,0.00
2023-03-07T05:11:37.670Z,0.00
2023-03-07T05:12:37.663Z,0.00
2023-03-07T05:13:37.661Z,0.00
2023-03-07T05:14:37.656Z,0.00
2023-03-07T05:15:37.707Z,0.00
2023-03-07T05:16:37.640Z,0.00
2023-03-07T05:17:37.614Z,0.00
2023-03-07T05:18:37.607Z,0.00
2023-03-07T05:19:37.592Z,0.00
2023-03-07T05:20:37.609Z,0.00
2023-03-07T05:21:37.686Z,0.00
2023-03-07T05:22:37.574Z,0.00
2023-03-07T05:23:37.548Z,0.00
2023-03-07T05:24:37.545Z,0.00
2023-03-07T05:25:37.538Z,0.00
2023-03-07T05:26:37.526Z,0.00
2023-03-07T05:27:37.516Z,0.00
2023-03-07T05:28:37.498Z,0.00
2023-03-07T05:29:37.503Z,0.00
2023-03-07T05:30:37.489Z,0.00
2023-03-07T05:31:37.532Z,0.00
2023-03-07T05:32:37.514Z,0.00
2023-03-07T05:33:37.451Z,0.00
2023-03-07T05:34:37.453Z,0.00
2023-03-07T05:35:37.470Z,0.00
2023-03-07T05:36:37.422Z,0.00
2023-03-07T05:37:37.410Z,0.00
2023-03-07T05:38:37.411Z,0.00
2023-03-07T05:39:37.386Z,0.00
2023-03-07T05:40:37.373Z,0.00
2023-03-07T05:41:37.366Z,0.00
2023-03-07T05:42:37.361Z,0.00
2023-03-07T05:43:37.344Z,0.00
2023-03-07T05:44:37.347Z,0.00
2023-03-07T05:45:37.321Z,0.00
2023-03-07T05:46:37.401Z,0.00
2023-03-07T05:47:37.317Z,0.00
2023-03-07T05:48:37.296Z,0.00
2023-03-07T05:49:37.287Z,0.00
2023-03-07T05:50:37.277Z,0.00
2023-03-07T05:51:37.270Z,0.00
2023-03-07T05:52:37.272Z,0.00
2023-03-07T05:53:37.243Z,0.00
2023-03-07T05:54:37.237Z,0.00
2023-03-07T05:55:37.229Z,0.00
2023-03-07T05:56:37.213Z,0.00
2023-03-07T05:57:37.205Z,0.00
2023-03-07T05:58:37.191Z,0.00
2023-03-07T05:59:37.185Z,0.00
2023-03-07T06:00:37.200Z,0.00
2023-03-07T06:01:37.157Z,0.00
2023-03-07T06:02:37.165Z,0.00
2023-03-07T06:03:37.189Z,0.00
2023-03-07T06:04:37.213Z,0.00
2023-03-07T06:05:37.125Z,0.00
2023-03-07T06:06:37.119Z,0.00
2023-03-07T06:07:37.105Z,0.00
2023-03-07T06:08:37.098Z,0.00
2023-03-07T06:09:37.083Z,0.00
2023-03-07T06:10:37.075Z,0.00
2023-03-07T06:11:37.063Z,0.00
2023-03-07T06:12:37.045Z,0.00
2023-03-07T06:13:37.040Z,0.00
2023-03-07T06:14:37.023Z,0.00
2023-03-07T06:15:37.022Z,5.63
2023-03-07T06:16:37.010Z,5.63
2023-03-07T06:17:37.823Z,5.63
2023-03-07T06:18:36.991Z,5.63
2023-03-07T06:19:36.979Z,5.63
2023-03-07T06:20:36.977Z,5.63
2023-03-07T06:21:36.961Z,5.63
2023-03-07T06:22:36.951Z,5.63
2023-03-07T06:23:36.939Z,5.63
2023-03-07T06:24:36.922Z,5.63
2023-03-07T06:25:36.929Z,5.63
2023-03-07T06:26:36.913Z,5.63
2023-03-07T06:27:36.897Z,5.63
2023-03-07T06:28:36.897Z,5.63
2023-03-07T06:29:36.884Z,5.63
2023-03-07T06:30:36.864Z,5.63
2023-03-07T06:31:36.870Z,5.63
2023-03-07T06:32:36.904Z,5.63
2023-03-07T06:33:36.836Z,5.63
2023-03-07T06:34:36.827Z,5.63
2023-03-07T06:35:36.843Z,5.63
2023-03-07T06:36:36.810Z,5.63
2023-03-07T06:37:36.793Z,5.63
2023-03-07T06:38:36.784Z,5.63
2023-03-07T06:39:36.791Z,5.63
2023-03-07T06:40:36.758Z,5.63
2023-03-07T06:41:36.757Z,5.63
2023-03-07T06:42:36.740Z,5.63
2023-03-07T06:43:36.774Z,5.63
2023-03-07T06:44:36.726Z,5.63
2023-03-07T06:45:36.798Z,5.63
2023-03-07T06:46:36.700Z,5.63
2023-03-07T06:47:36.729Z,5.63
2023-03-07T06:48:36.678Z,5.63
2023-03-07T06:49:36.684Z,5.63
2023-03-07T06:50:36.660Z,5.63
2023-03-07T06:51:37.943Z,5.63
2023-03-07T06:52:36.651Z,5.63
2023-03-07T06:53:36.654Z,11.25
2023-03-07T06:54:36.622Z,11.25
2023-03-07T06:55:36.623Z,11.25
2023-03-07T06:56:36.594Z,11.25
2023-03-07T06:57:36.596Z,11.25
2023-03-07T06:58:36.577Z,11.25
2023-03-07T06:59:36.580Z,11.25
2023-03-07T07:00:36.569Z,11.25
2023-03-07T07:01:36.575Z,11.25
2023-03-07T07:02:36.588Z,16.88
2023-03-07T07:03:36.542Z,16.88
2023-03-07T07:04:36.520Z,16.88
2023-03-07T07:05:36.514Z,11.25
2023-03-07T07:06:36.504Z,16.88
2023-03-07T07:07:36.498Z,16.88
2023-03-07T07:08:36.492Z,16.88
2023-03-07T07:09:36.482Z,16.88
2023-03-07T07:10:36.456Z,16.88
2023-03-07T07:11:36.460Z,16.88
2023-03-07T07:12:36.447Z,16.88
2023-03-07T07:13:36.440Z,16.88
2023-03-07T07:14:36.416Z,22.50
2023-03-07T07:15:36.416Z,22.50
2023-03-07T07:16:36.648Z,16.88
2023-03-07T07:17:36.398Z,16.88
2023-03-07T07:18:36.395Z,16.88
2023-03-07T07:19:36.371Z,16.88
2023-03-07T07:20:36.358Z,22.50
2023-03-07T07:21:37.248Z,22.50
2023-03-07T07:22:36.344Z,28.13
2023-03-07T07:23:36.331Z,28.13
2023-03-07T07:24:36.327Z,28.13
2023-03-07T07:25:36.316Z,28.13
2023-03-07T07:26:36.304Z,28.13
2023-03-07T07:27:36.290Z,33.75
2023-03-07T07:28:36.299Z,33.75
2023-03-07T07:29:36.272Z,33.75
2023-03-07T07:30:36.265Z,33.75
2023-03-07T07:31:36.379Z,33.75
2023-03-07T07:32:36.422Z,28.13
2023-03-07T07:33:36.244Z,28.13
2023-03-07T07:34:36.216Z,28.13
2023-03-07T07:35:36.309Z,28.13
2023-03-07T07:36:36.214Z,39.38
2023-03-07T07:37:36.196Z,45.00
2023-03-07T07:38:36.186Z,45.00
2023-03-07T07:39:36.180Z,45.00
2023-03-07T07:40:36.166Z,45.00
2023-03-07T07:41:36.169Z,50.63
2023-03-07T07:42:36.146Z,56.25
2023-03-07T07:43:36.137Z,61.88
2023-03-07T07:44:36.126Z,67.50
2023-03-07T07:45:36.149Z,84.38
2023-03-07T07:46:36.120Z,56.25
2023-03-07T07:47:36.101Z,56.25
2023-03-07T07:48:36.088Z,50.63
2023-03-07T07:49:36.116Z,39.38
2023-03-07T07:50:36.066Z,33.75
2023-03-07T07:51:36.068Z,28.13
2023-03-07T07:52:36.069Z,22.50
2023-03-07T07:53:36.061Z,22.50
2023-03-07T07:54:36.031Z,16.88
2023-03-07T07:55:36.025Z,16.88
2023-03-07T07:56:36.012Z,16.88
2023-03-07T07:57:36.009Z,16.88
2023-03-07T07:58:36.001Z,16.88
2023-03-07T07:59:35.998Z,16.88
2023-03-07T08:00:38.254Z,16.88
2023-03-07T08:01:35.973Z,16.88
2023-03-07T08:02:36.003Z,16.88
2023-03-07T08:03:35.975Z,16.88
2023-03-07T08:04:35.942Z,16.88
2023-03-07T08:05:36.013Z,16.88
2023-03-07T08:06:35.918Z,16.88
2023-03-07T08:07:35.919Z,16.88
2023-03-07T08:08:35.901Z,22.50
2023-03-07T08:09:35.891Z,22.50
2023-03-07T08:10:35.902Z,28.13
2023-03-07T08:11:35.892Z,28.13
2023-03-07T08:12:35.865Z,33.75
2023-03-07T08:13:35.887Z,28.13
2023-03-07T08:14:35.848Z,28.13
2023-03-07T08:15:35.858Z,33.75
2023-03-07T08:16:35.828Z,22.50
2023-03-07T08:17:35.820Z,22.50
2023-03-07T08:18:35.820Z,16.88
2023-03-07T08:19:35.795Z,16.88
2023-03-07T08:20:35.786Z,11.25
2023-03-07T08:21:35.786Z,11.25
2023-03-07T08:22:35.778Z,16.88
2023-03-07T08:23:35.763Z,16.88
2023-03-07T08:24:40.644Z,16.88
2023-03-07T08:25:35.749Z,22.50
2023-03-07T08:26:35.731Z,22.50
2023-03-07T08:27:35.722Z,22.50
2023-03-07T08:28:35.718Z,22.50
2023-03-07T08:29:35.732Z,22.50
2023-03-07T08:30:35.692Z,22.50
2023-03-07T08:31:35.755Z,22.50
2023-03-07T08:32:35.696Z,33.75
2023-03-07T08:33:35.680Z,39.38
2023-03-07T08:34:35.714Z,39.38
2023-03-07T08:35:35.694Z,45.00
2023-03-07T08:36:35.650Z,45.00
2023-03-07T08:37:35.639Z,50.63
2023-03-07T08:38:35.620Z,56.25
2023-03-07T08:39:35.616Z,61.88
2023-03-07T08:40:35.599Z,67.50
2023-03-07T08:41:35.592Z,67.50
2023-03-07T08:42:35.682Z,73.13
2023-03-07T08:43:35.576Z,78.75
2023-03-07T08:44:35.561Z,67.50
2023-03-07T08:45:35.560Z,67.50
2023-03-07T08:46:35.609Z,61.88
2023-03-07T08:47:35.533Z,56.25
2023-03-07T08:48:35.517Z,50.63
2023-03-07T08:49:35.524Z,50.63
2023-03-07T08:50:35.498Z,56.25
2023-03-07T08:51:35.496Z,56.25
2023-03-07T08:52:35.483Z,56.25
2023-03-07T08:53:35.499Z,61.88
2023-03-07T08:54:35.466Z,73.13
2023-03-07T08:55:35.458Z,84.38
2023-03-07T08:56:35.441Z,90.00
2023-03-07T08:57:35.460Z,95.63
2023-03-07T08:58:35.429Z,101.25
2023-03-07T08:59:35.423Z,101.25
2023-03-07T09:00:35.405Z,112.50
2023-03-07T09:01:35.475Z,106.88
2023-03-07T09:02:35.390Z,101.25
2023-03-07T09:03:35.398Z,101.25
2023-03-07T09:04:35.384Z,84.38
2023-03-07T09:05:35.370Z,67.50
2023-03-07T09:06:35.362Z,61.88
2023-03-07T09:07:35.364Z,56.25
2023-03-07T09:08:35.333Z,50.63
2023-03-07T09:09:35.367Z,50.63
2023-03-07T09:10:35.317Z,50.63
2023-03-07T09:11:35.312Z,56.25
2023-03-07T09:12:35.307Z,50.63
2023-03-07T09:13:43.119Z,56.25
2023-03-07T09:14:35.278Z,45.00
2023-03-07T09:15:35.277Z,50.63
2023-03-07T09:16:35.317Z,50.63
2023-03-07T09:17:35.260Z,61.88
2023-03-07T09:18:35.258Z,67.50
2023-03-07T09:19:35.244Z,73.13
2023-03-07T09:20:35.233Z,67.50
2023-03-07T09:21:35.230Z,73.13
2023-03-07T09:22:35.215Z,73.13
2023-03-07T09:23:35.212Z,67.50
2023-03-07T09:24:35.195Z,84.38
2023-03-07T09:25:35.197Z,90.00
2023-03-07T09:26:35.183Z,61.88
2023-03-07T09:27:35.217Z,67.50
2023-03-07T09:28:35.161Z,101.25
2023-03-07T09:29:35.157Z,140.63
2023-03-07T09:30:35.157Z,129.38
2023-03-07T09:31:35.172Z,135.00
2023-03-07T09:32:35.176Z,129.38
2023-03-07T09:33:35.119Z,129.38
2023-03-07T09:34:35.119Z,118.13
2023-03-07T09:35:35.149Z,135.00
2023-03-07T09:36:35.093Z,146.25
2023-03-07T09:37:35.100Z,168.75
2023-03-07T09:38:35.081Z,174.38
2023-03-07T09:39:35.077Z,168.75
2023-03-07T09:40:35.057Z,180.00
2023-03-07T09:41:35.063Z,180.00
2023-03-07T09:42:35.048Z,157.50
2023-03-07T09:43:35.045Z,135.00
2023-03-07T09:44:35.030Z,135.00
2023-03-07T09:45:37.104Z,123.75
2023-03-07T09:46:35.013Z,118.13
2023-03-07T09:47:35.016Z,101.25
2023-03-07T09:48:35.000Z,95.63
2023-03-07T09:49:34.989Z,84.38
2023-03-07T09:50:34.987Z,84.38
2023-03-07T09:51:34.995Z,84.38
2023-03-07T09:52:34.974Z,78.75
2023-03-07T09:53:34.979Z,73.13
2023-03-07T09:54:34.957Z,84.38
2023-03-07T09:55:34.948Z,90.00
2023-03-07T09:56:34.935Z,78.75
2023-03-07T09:57:34.939Z,73.13
2023-03-07T09:58:34.920Z,73.13
2023-03-07T09:59:34.938Z,73.13
2023-03-07T10:00:34.908Z,67.50
2023-03-07T10:01:34.899Z,67.50
2023-03-07T10:02:34.898Z,61.88
2023-03-07T10:03:34.916Z,61.88
2023-03-07T10:04:34.878Z,61.88
2023-03-07T10:05:34.868Z,61.88
2023-03-07T10:06:34.914Z,67.50
2023-03-07T10:07:34.859Z,61.88
2023-03-07T10:08:34.839Z,50.63
2023-03-07T10:09:34.855Z,45.00
2023-03-07T10:10:34.821Z,45.00
2023-03-07T10:11:34.877Z,45.00
2023-03-07T10:12:34.805Z,50.63
2023-03-07T10:13:34.814Z,61.88
2023-03-07T10:14:34.847Z,67.50
2023-03-07T10:15:34.795Z,67.50
2023-03-07T10:16:34.818Z,67.50
2023-03-07T10:17:34.773Z,67.50
2023-03-07T10:18:34.761Z,67.50
2023-03-07T10:19:34.756Z,67.50
2023-03-07T10:20:34.753Z,67.50
2023-03-07T10:21:34.733Z,67.50
2023-03-07T10:22:34.733Z,67.50
2023-03-07T10:23:34.721Z,61.88
2023-03-07T10:24:36.926Z,67.50
2023-03-07T10:25:34.698Z,73.13
2023-03-07T10:26:34.692Z,67.50
2023-03-07T10:27:34.681Z,67.50
2023-03-07T10:28:34.671Z,73.13
2023-03-07T10:29:34.693Z,67.50
2023-03-07T10:30:34.664Z,61.88
2023-03-07T10:31:34.719Z,73.13
2023-03-07T10:32:34.690Z,67.50
2023-03-07T10:33:34.633Z,67.50
2023-03-07T10:34:34.628Z,67.50
2023-03-07T10:35:34.630Z,67.50
2023-03-07T10:36:34.657Z,67.50
2023-03-07T10:37:34.596Z,61.88
2023-03-07T10:38:34.595Z,61.88
2023-03-07T10:39:34.604Z,61.88
2023-03-07T10:40:34.581Z,67.50
2023-03-07T10:41:34.563Z,67.50
2023-03-07T10:42:34.561Z,61.88
2023-03-07T10:43:34.556Z,56.25
2023-03-07T10:44:34.554Z,56.25
2023-03-07T10:45:34.540Z,50.63
2023-03-07T10:46:36.515Z,50.63
2023-03-07T10:47:34.518Z,50.63
2023-03-07T10:48:34.505Z,50.63
2023-03-07T10:49:34.508Z,50.63
2023-03-07T10:50:34.494Z,56.25
2023-03-07T10:51:34.491Z,67.50
2023-03-07T10:52:34.472Z,67.50
2023-03-07T10:53:34.464Z,56.25
2023-03-07T10:54:34.461Z,56.25
2023-03-07T10:55:34.446Z,39.38
2023-03-07T10:56:34.453Z,39.38
2023-03-07T10:57:34.431Z,45.00
2023-03-07T10:58:34.429Z,50.63
2023-03-07T10:59:34.429Z,56.25
2023-03-07T11:00:34.408Z,61.88
2023-03-07T11:01:34.486Z,56.25
2023-03-07T11:02:34.413Z,56.25
2023-03-07T11:03:49.601Z,56.25
2023-03-07T11:04:34.396Z,67.50
2023-03-07T11:05:34.366Z,61.88
2023-03-07T11:06:34.457Z,67.50
2023-03-07T11:07:34.347Z,61.88
2023-03-07T11:08:34.344Z,61.88
2023-03-07T11:09:34.332Z,61.88
2023-03-07T11:10:34.347Z,61.88
2023-03-07T11:11:34.315Z,56.25
2023-03-07T11:12:34.306Z,61.88
2023-03-07T11:13:34.296Z,61.88
2023-03-07T11:14:34.288Z,61.88
2023-03-07T11:15:34.311Z,61.88
2023-03-07T11:16:34.381Z,61.88
2023-03-07T11:17:34.280Z,56.25
2023-03-07T11:18:34.258Z,50.63
2023-03-07T11:19:34.277Z,50.63
2023-03-07T11:20:34.247Z,45.00
2023-03-07T11:21:34.233Z,50.63
2023-03-07T11:22:34.237Z,50.63
2023-03-07T11:23:34.213Z,56.25
2023-03-07T11:24:34.212Z,56.25
2023-03-07T11:25:34.210Z,56.25
2023-03-07T11:26:34.191Z,50.63
2023-03-07T11:27:34.180Z,50.63
2023-03-07T11:28:34.178Z,50.63
2023-03-07T11:29:34.171Z,50.63
2023-03-07T11:30:34.160Z,56.25
2023-03-07T11:31:34.151Z,56.25
2023-03-07T11:32:34.176Z,61.88
2023-03-07T11:33:34.131Z,61.88
2023-03-07T11:34:34.129Z,61.88
2023-03-07T11:35:34.132Z,61.88
2023-03-07T11:36:34.109Z,61.88
2023-03-07T11:37:34.098Z,61.88
2023-03-07T11:38:34.097Z,56.25
2023-03-07T11:39:34.102Z,56.25
2023-03-07T11:40:34.088Z,50.63
2023-03-07T11:41:34.065Z,56.25
2023-03-07T11:42:34.067Z,50.63
2023-03-07T11:43:34.063Z,50.63
2023-03-07T11:44:34.055Z,50.63
2023-03-07T11:45:34.038Z,50.63
2023-03-07T11:46:34.089Z,50.63
2023-03-07T11:47:34.022Z,50.63
2023-03-07T11:48:34.012Z,50.63
2023-03-07T11:49:33.998Z,50.63
2023-03-07T11:50:33.996Z,50.63
2023-03-07T11:51:33.989Z,56.25
2023-03-07T11:52:33.980Z,50.63
2023-03-07T11:53:33.969Z,50.63
2023-03-07T11:54:33.961Z,50.63
2023-03-07T11:55:35.871Z,45.00
2023-03-07T11:56:33.965Z,50.63
2023-03-07T11:57:33.954Z,50.63
2023-03-07T11:58:33.938Z,50.63
2023-03-07T11:59:33.934Z,50.63
2023-03-07T12:00:33.917Z,50.63
2023-03-07T12:01:33.909Z,50.63
2023-03-07T12:02:33.936Z,45.00
2023-03-07T12:03:33.890Z,45.00
2023-03-07T12:04:33.884Z,45.00
2023-03-07T12:05:34.007Z,45.00
2023-03-07T12:06:33.875Z,45.00
2023-03-07T12:07:33.857Z,45.00
2023-03-07T12:08:33.854Z,45.00
2023-03-07T12:09:33.845Z,45.00
2023-03-07T12:10:33.830Z,50.63
2023-03-07T12:11:33.822Z,50.63
2023-03-07T12:12:33.817Z,56.25
2023-03-07T12:13:33.808Z,56.25
2023-03-07T12:14:33.805Z,56.25
2023-03-07T12:15:33.804Z,50.63
2023-03-07T12:16:33.805Z,50.63
2023-03-07T12:17:33.774Z,45.00
2023-03-07T12:18:33.775Z,39.38
2023-03-07T12:19:33.761Z,39.38
2023-03-07T12:20:33.770Z,39.38
2023-03-07T12:21:33.749Z,39.38
2023-03-07T12:22:33.739Z,39.38
2023-03-07T12:23:33.744Z,39.38
2023-03-07T12:24:33.733Z,45.00
2023-03-07T12:25:33.746Z,45.00
2023-03-07T12:26:33.714Z,39.38
2023-03-07T12:27:33.690Z,39.38
2023-03-07T12:28:33.685Z,39.38
2023-03-07T12:29:33.698Z,33.75
2023-03-07T12:30:33.662Z,33.75
2023-03-07T12:31:33.748Z,28.13
2023-03-07T12:32:33.890Z,28.13
2023-03-07T12:33:33.675Z,28.13
2023-03-07T12:34:33.655Z,33.75
2023-03-07T12:35:33.672Z,33.75
2023-03-07T12:36:33.679Z,33.75
2023-03-07T12:37:33.634Z,33.75
2023-03-07T12:38:36.165Z,33.75
2023-03-07T12:39:33.590Z,33.75
2023-03-07T12:40:33.590Z,39.38
2023-03-07T12:41:33.578Z,39.38
2023-03-07T12:42:33.568Z,33.75
2023-03-07T12:43:33.557Z,33.75
2023-03-07T12:44:33.559Z,33.75
2023-03-07T12:45:33.665Z,33.75
2023-03-07T12:46:33.627Z,33.75
2023-03-07T12:47:33.528Z,33.75
2023-03-07T12:48:33.520Z,33.75
2023-03-07T12:49:40.888Z,33.75
2023-03-07T12:50:33.508Z,33.75
2023-03-07T12:51:33.503Z,33.75
2023-03-07T12:52:33.484Z,33.75
2023-03-07T12:53:33.485Z,33.75
2023-03-07T12:54:33.470Z,33.75
2023-03-07T12:55:33.468Z,33.75
2023-03-07T12:56:33.456Z,33.75
2023-03-07T12:57:33.462Z,33.75
2023-03-07T12:58:33.453Z,33.75
2023-03-07T12:59:33.431Z,39.38
2023-03-07T13:00:33.430Z,45.00
2023-03-07T13:01:33.434Z,45.00
2023-03-07T13:02:33.425Z,50.63
2023-03-07T13:03:33.399Z,45.00
2023-03-07T13:04:33.428Z,45.00
2023-03-07T13:05:33.397Z,39.38
2023-03-07T13:06:33.374Z,39.38
2023-03-07T13:07:33.370Z,33.75
2023-03-07T13:08:33.356Z,33.75
2023-03-07T13:09:33.355Z,28.13
2023-03-07T13:10:33.340Z,28.13